Columbia (CAE/KCAE)

Map

Destinations

Information

Location
Columbia, SC
Local Time
00:29 / 12:29 am
GMT Time
05:29 / 5:29 am
Gates
Unassigned
No FAA reported delays
METAR KCAE 260456Z 29009KT 10SM CLR 12/M06 A2996 RMK AO2 SLP142 T01171061 402670117
TAF KCAE 260439Z 2605/2624 29012KT P6SM SKC FM260600 30008KT P6SM SKC FM261200 33005KT P6SM SKC FM261800 VRB04KT P6SM SKC
  • No charts available